This is the latest recevied weather packets stored in our database for station/object KC2GYU. If no packets are shown the sender has not sent any weather packets the latest 10 day(s).
| Time | Temp. | Humidity | Pressure | Rain* | Wind** | Luminosity | Snow |
|---|---|---|---|---|---|---|---|
| 1777991817 | 22.22° C | 70% | 1013.7 hPa | 0 mm | - | 572 W/m² | - |
| 1777991514 | 22.22° C | 74% | 1013.8 hPa | 0 mm | - | 542 W/m² | - |
| 1777991211 | 22.78° C | 70% | 1013.7 hPa | 0 mm | - | 512 W/m² | - |
| 1777990908 | 24.44° C | 62% | 1013.9 hPa | 0 mm | - | 500 W/m² | - |
| 1777990606 | 24.44° C | 61% | 1013.9 hPa | 0 mm | - | 511 W/m² | - |
| 1777990303 | 23.89° C | 59% | 1013.8 hPa | 0 mm | - | 522 W/m² | - |
| 1777989999 | 23.89° C | 61% | 1013.5 hPa | 0 mm | - | 556 W/m² | - |
| 1777989696 | 23.33° C | 59% | 1013.4 hPa | 0 mm | - | 534 W/m² | - |
| 1777989392 | 23.89° C | 58% | 1013.6 hPa | 0 mm | - | 530 W/m² | - |
| 1777989089 | 23.33° C | 58% | 1013.6 hPa | 0 mm | - | 540 W/m² | - |
| 1777988784 | 23.33° C | 59% | 1013.6 hPa | 0 mm | - | 526 W/m² | - |
| 1777988482 | 23.33° C | 60% | 1013.5 hPa | 0 mm | - | 510 W/m² | - |
| 1777988179 | 23.33° C | 67% | 1013.3 hPa | 0 mm | - | 190 W/m² | - |
| 1777987875 | 22.22° C | 69% | 1013.4 hPa | 0 mm | - | 487 W/m² | - |
| 1777987571 | 21.67° C | 72% | 1013.5 hPa | 0 mm | - | 471 W/m² | - |
| 1777987269 | 21.11° C | 73% | 1013.6 hPa | 0 mm | - | 431 W/m² | - |
| 1777986966 | 20.56° C | 75% | 1013.5 hPa | 0 mm | - | 364 W/m² | - |
| 1777986664 | 20.56° C | 75% | 1013.4 hPa | 0 mm | - | 393 W/m² | - |
| 1777986361 | 20.56° C | 75% | 1013.6 hPa | 0 mm | - | 376 W/m² | - |
| 1777986059 | 20° C | 76% | 1013.7 hPa | 0 mm | - | 360 W/m² | - |
| 1777985755 | 20° C | 76% | 1013.5 hPa | 0 mm | - | 348 W/m² | - |
| 1777985453 | 19.44° C | 77% | 1013.7 hPa | 0 mm | - | 330 W/m² | - |
| 1777985149 | 19.44° C | 78% | 1013.6 hPa | 0 mm | - | 321 W/m² | - |
| 1777984845 | 19.44° C | 80% | 1013.7 hPa | 0 mm | - | 306 W/m² | - |
| 1777984542 | 19.44° C | 80% | 1013.6 hPa | 0 mm | - | 286 W/m² | - |
* Rain latest hour (hover to see other rain measurements)
** Current wind speed in m/s (hover to see current wind gust speed)